Time;durP1;ratioP1;P1;durP2;ratioP2;P2;SDS_P1;SDS_P2;PMS_P1;PMS_P2;Temp;Humidity;BMP_temperature;BMP_pressure;BME280_temperature;BME280_humidity;BME280_pressure;Samples;Min_cycle;Max_cycle;Signal;HPM_P1;HPM_P2
2021/12/10 00:00:20;;;;;;;;;;;5.00;99.90;;;;;;5061437;28;19920;-80
2021/12/10 02:36:42;;;;;;;;;;;4.80;99.90;;;;;;5093538;28;20313;-79
2021/12/10 02:39:08;;;;;;;;;;;4.70;99.90;;;;;;5045673;28;19970;-80
2021/12/10 02:41:34;;;;;;;;;;;4.70;99.90;;;;;;5062731;28;19965;-79
2021/12/10 02:44:00;;;;;;;;;;;4.70;99.90;;;;;;5078836;28;19928;-80
2021/12/10 02:46:26;;;;;;;;;;;4.70;99.90;;;;;;5042294;28;19932;-80
2021/12/10 02:48:52;;;;;;;;;;;4.80;99.90;;;;;;5046338;28;19950;-80
2021/12/10 02:51:17;;;;;;;;;;;4.70;99.90;;;;;;5046276;28;19920;-80
2021/12/10 02:53:45;;;;;;;;;;;4.80;99.90;;;;;;5061554;28;19928;-80
2021/12/10 02:56:12;;;;;;;;;;;4.80;99.90;;;;;;5045327;28;19931;-80
2021/12/10 02:58:37;;;;;;;;;;;4.80;99.90;;;;;;5076774;28;20025;-78
2021/12/10 03:01:07;;;;;;;;;;;4.80;99.90;;;;;;5078951;28;19923;-79
2021/12/10 03:03:33;;;;;;;;;;;4.80;99.90;;;;;;5044001;28;19931;-79
2021/12/10 03:05:59;;;;;;;;;;;4.80;99.90;;;;;;5060398;28;20293;-80
2021/12/10 03:08:24;;;;;;;;;;;4.70;99.90;;;;;;5060908;28;19927;-79
2021/12/10 03:10:51;;;;;;;;;;;4.70;99.90;;;;;;5044582;28;19934;-79
2021/12/10 03:13:17;;;;;;;;;;;4.80;99.90;;;;;;5062260;28;20015;-80
2021/12/10 03:15:44;;;;;;;;;;;4.80;99.90;;;;;;5077618;28;20409;-79
2021/12/10 03:18:10;;;;;;;;;;;4.80;99.90;;;;;;5062193;28;19920;-79
2021/12/10 03:20:36;;;;;;;;;;;4.80;99.90;;;;;;5041468;28;19921;-80
2021/12/10 03:23:03;;;;;;;;;;;4.80;99.90;;;;;;5062290;28;19982;-79
2021/12/10 03:25:29;;;;;;;;;;;4.80;99.90;;;;;;5077070;28;20403;-79
2021/12/10 03:27:56;;;;;;;;;;;4.80;99.90;;;;;;5061282;28;19924;-79
2021/12/10 03:30:24;;;;;;;;;;;4.80;99.90;;;;;;5041039;28;20300;-80
2021/12/10 03:32:50;;;;;;;;;;;4.70;99.90;;;;;;5066994;28;20381;-79
2021/12/10 03:35:18;;;;;;;;;;;4.70;99.90;;;;;;5076568;28;19927;-80
2021/12/10 03:37:47;;;;;;;;;;;4.70;99.90;;;;;;5077906;28;19920;-78
2021/12/10 03:40:14;;;;;;;;;;;4.70;99.90;;;;;;5060740;28;19986;-79
2021/12/10 03:42:40;;;;;;;;;;;4.70;99.90;;;;;;5059988;28;19990;-79
2021/12/10 03:45:10;;;;;;;;;;;4.60;99.90;;;;;;5043487;28;19945;-79
2021/12/10 03:47:35;;;;;;;;;;;4.60;99.90;;;;;;5059972;28;20011;-80
2021/12/10 03:50:01;;;;;;;;;;;4.60;99.90;;;;;;5077245;28;20002;-80
2021/12/10 03:52:27;;;;;;;;;;;4.60;99.90;;;;;;5077660;28;20022;-79
2021/12/10 03:54:54;;;;;;;;;;;4.50;99.90;;;;;;5052414;28;19920;-80
2021/12/10 03:57:20;;;;;;;;;;;4.50;99.90;;;;;;5061195;28;19970;-79
2021/12/10 03:59:45;;;;;;;;;;;4.50;99.90;;;;;;5060248;28;19920;-79
2021/12/10 04:02:12;;;;;;;;;;;4.50;99.90;;;;;;5061010;28;20018;-78
2021/12/10 04:04:39;;;;;;;;;;;4.50;99.90;;;;;;5075350;28;20298;-79
2021/12/10 04:07:07;;;;;;;;;;;4.50;99.90;;;;;;5073749;28;19931;-80
2021/12/10 04:09:33;;;;;;;;;;;4.50;99.90;;;;;;5057670;28;19973;-79
2021/12/10 04:11:59;;;;;;;;;;;4.50;99.90;;;;;;5075870;28;20421;-80
2021/12/10 04:14:24;;;;;;;;;;;4.40;99.90;;;;;;5057815;28;19967;-80
2021/12/10 04:16:55;;;;;;;;;;;4.40;99.90;;;;;;5058007;28;19974;-80
2021/12/10 04:19:23;;;;;;;;;;;4.30;99.90;;;;;;5057903;28;19927;-80
2021/12/10 04:21:52;;;;;;;;;;;4.30;99.90;;;;;;5058276;28;19931;-79
2021/12/10 04:24:19;;;;;;;;;;;4.30;99.90;;;;;;5057525;28;19920;-80
2021/12/10 04:26:45;;;;;;;;;;;4.20;99.90;;;;;;5033759;28;19929;-80
2021/12/10 04:29:11;;;;;;;;;;;4.20;99.90;;;;;;5041463;28;20355;-79
2021/12/10 04:31:36;;;;;;;;;;;4.10;99.90;;;;;;5076878;28;19985;-79
2021/12/10 04:34:02;;;;;;;;;;;4.10;99.90;;;;;;5043036;28;20011;-79
2021/12/10 04:36:29;;;;;;;;;;;4.00;99.90;;;;;;5059632;28;19920;-79
2021/12/10 04:38:55;;;;;;;;;;;4.00;99.90;;;;;;5059225;28;20302;-79
2021/12/10 04:41:21;;;;;;;;;;;3.90;99.90;;;;;;5036891;28;19924;-79
2021/12/10 04:43:47;;;;;;;;;;;3.90;99.90;;;;;;5064256;28;19920;-79
2021/12/10 04:46:13;;;;;;;;;;;3.80;99.90;;;;;;5040220;28;19932;-79
2021/12/10 04:48:44;;;;;;;;;;;3.80;99.90;;;;;;5058985;28;19920;-79
2021/12/10 04:51:10;;;;;;;;;;;3.80;99.90;;;;;;5075005;28;19999;-80
2021/12/10 04:53:37;;;;;;;;;;;3.70;99.90;;;;;;5040049;28;19967;-79
2021/12/10 04:56:03;;;;;;;;;;;3.70;99.90;;;;;;5075228;28;20020;-79
2021/12/10 04:58:28;;;;;;;;;;;3.70;99.90;;;;;;5058405;28;19951;-79
2021/12/10 05:00:54;;;;;;;;;;;3.70;99.90;;;;;;5042379;28;19954;-79
2021/12/10 05:03:19;;;;;;;;;;;3.70;99.90;;;;;;5059344;28;19926;-79
2021/12/10 05:05:46;;;;;;;;;;;3.70;99.90;;;;;;5039893;28;19930;-79
2021/12/10 05:08:12;;;;;;;;;;;3.70;99.90;;;;;;5074895;28;20343;-78
2021/12/10 05:10:39;;;;;;;;;;;3.60;99.90;;;;;;5050706;28;19973;-79
2021/12/10 05:13:05;;;;;;;;;;;3.60;99.90;;;;;;5075810;28;19931;-79
2021/12/10 05:15:32;;;;;;;;;;;3.60;99.90;;;;;;5074168;28;19920;-79
2021/12/10 05:17:58;;;;;;;;;;;3.70;99.90;;;;;;5058711;28;20382;-79
2021/12/10 05:20:26;;;;;;;;;;;3.70;99.90;;;;;;5037886;28;19959;-79
2021/12/10 05:22:52;;;;;;;;;;;3.70;99.90;;;;;;5056457;28;19920;-79
2021/12/10 05:25:18;;;;;;;;;;;3.70;99.90;;;;;;5036737;28;19924;-79
2021/12/10 05:27:46;;;;;;;;;;;3.70;99.90;;;;;;5051503;28;20401;-79
2021/12/10 05:30:13;;;;;;;;;;;3.60;99.90;;;;;;5037382;28;19928;-79
2021/12/10 05:32:39;;;;;;;;;;;3.60;99.90;;;;;;5075370;28;20447;-79
2021/12/10 05:35:05;;;;;;;;;;;3.50;99.90;;;;;;5057190;28;19928;-79
2021/12/10 05:37:31;;;;;;;;;;;3.50;99.90;;;;;;5057776;28;19927;-79
2021/12/10 05:39:56;;;;;;;;;;;3.50;99.90;;;;;;5073838;28;20386;-79
2021/12/10 05:42:22;;;;;;;;;;;3.50;99.90;;;;;;5041819;28;20381;-79
2021/12/10 05:44:51;;;;;;;;;;;3.40;99.90;;;;;;5057601;28;19924;-79
2021/12/10 05:47:17;;;;;;;;;;;3.40;99.90;;;;;;5038496;28;19924;-79
2021/12/10 05:49:42;;;;;;;;;;;3.40;99.90;;;;;;5041085;28;19939;-79
2021/12/10 05:52:08;;;;;;;;;;;3.30;99.90;;;;;;5057419;28;19924;-79
2021/12/10 05:54:34;;;;;;;;;;;3.30;99.90;;;;;;5057849;28;19920;-79
2021/12/10 05:57:00;;;;;;;;;;;3.30;99.90;;;;;;5040489;28;20350;-79
2021/12/10 05:59:25;;;;;;;;;;;3.20;99.90;;;;;;5057109;28;19920;-79
2021/12/10 06:01:52;;;;;;;;;;;3.20;99.90;;;;;;5057723;28;19920;-79
2021/12/10 06:04:22;;;;;;;;;;;3.20;99.90;;;;;;5057799;28;19971;-79
2021/12/10 06:06:48;;;;;;;;;;;3.10;99.90;;;;;;5057628;28;20352;-79
2021/12/10 06:09:14;;;;;;;;;;;3.10;99.90;;;;;;5040532;28;20008;-79
2021/12/10 06:11:39;;;;;;;;;;;3.10;99.90;;;;;;5058017;28;19927;-79
2021/12/10 06:14:06;;;;;;;;;;;3.00;99.90;;;;;;5073882;28;20361;-79
2021/12/10 06:16:32;;;;;;;;;;;3.00;99.90;;;;;;5057647;28;19920;-79
2021/12/10 06:18:59;;;;;;;;;;;3.00;99.90;;;;;;5039294;28;19927;-79
2021/12/10 06:21:25;;;;;;;;;;;3.00;99.90;;;;;;5053845;28;19925;-79
2021/12/10 06:23:50;;;;;;;;;;;2.90;99.90;;;;;;5037677;28;19973;-79
2021/12/10 06:26:16;;;;;;;;;;;2.90;99.90;;;;;;5025345;28;19930;-79
2021/12/10 06:28:44;;;;;;;;;;;2.90;99.90;;;;;;5039556;28;19981;-79
2021/12/10 06:31:10;;;;;;;;;;;2.80;99.90;;;;;;5050245;28;19920;-79
2021/12/10 06:33:36;;;;;;;;;;;2.80;99.90;;;;;;5044974;28;19974;-79
2021/12/10 06:36:04;;;;;;;;;;;2.80;99.90;;;;;;5050473;28;19924;-79
2021/12/10 06:38:29;;;;;;;;;;;2.80;99.90;;;;;;5069074;28;19924;-79
2021/12/10 06:40:55;;;;;;;;;;;2.80;99.90;;;;;;5046799;28;20313;-79
2021/12/10 06:43:21;;;;;;;;;;;2.70;99.90;;;;;;5036532;28;19927;-79
2021/12/10 06:45:47;;;;;;;;;;;2.70;99.90;;;;;;5055220;28;20376;-79
2021/12/10 06:48:13;;;;;;;;;;;2.70;99.90;;;;;;5055067;28;19959;-79
2021/12/10 06:50:40;;;;;;;;;;;2.70;99.90;;;;;;5055872;28;19920;-79
2021/12/10 06:53:07;;;;;;;;;;;2.70;99.90;;;;;;5041118;28;19928;-79
2021/12/10 06:55:33;;;;;;;;;;;2.60;99.90;;;;;;5055739;28;19924;-79
2021/12/10 06:57:58;;;;;;;;;;;2.60;99.90;;;;;;5054147;28;19928;-78
2021/12/10 07:00:26;;;;;;;;;;;2.60;99.90;;;;;;5048324;28;19932;-78
2021/12/10 07:02:51;;;;;;;;;;;2.60;99.90;;;;;;5046582;28;20008;-79
2021/12/10 07:05:17;;;;;;;;;;;2.60;99.90;;;;;;5041680;28;20372;-79
2021/12/10 07:07:44;;;;;;;;;;;2.60;99.90;;;;;;5056204;28;19993;-79
2021/12/10 07:10:12;;;;;;;;;;;2.50;99.90;;;;;;5057584;28;19924;-79
2021/12/10 07:12:38;;;;;;;;;;;2.50;99.90;;;;;;5056987;28;19928;-79
2021/12/10 07:15:06;;;;;;;;;;;2.50;99.90;;;;;;5040832;28;19947;-79
2021/12/10 07:17:32;;;;;;;;;;;2.50;99.90;;;;;;5071158;28;19927;-79
2021/12/10 07:19:58;;;;;;;;;;;2.50;99.90;;;;;;5058249;28;19930;-79
2021/12/10 07:22:23;;;;;;;;;;;2.50;99.90;;;;;;5040884;28;19924;-79
2021/12/10 07:24:49;;;;;;;;;;;2.50;99.90;;;;;;5054870;28;19985;-79
2021/12/10 07:27:16;;;;;;;;;;;2.50;99.90;;;;;;5046327;28;19951;-79
2021/12/10 07:29:42;;;;;;;;;;;2.40;99.90;;;;;;5041902;28;19931;-79
2021/12/10 07:32:08;;;;;;;;;;;2.50;99.90;;;;;;5057148;28;19920;-79
2021/12/10 07:34:33;;;;;;;;;;;2.40;99.90;;;;;;5074437;28;19946;-79
2021/12/10 07:36:59;;;;;;;;;;;2.40;99.90;;;;;;5073891;28;19920;-79
2021/12/10 07:39:25;;;;;;;;;;;2.40;99.90;;;;;;5072656;28;20019;-79
2021/12/10 07:41:50;;;;;;;;;;;2.40;99.90;;;;;;5074251;28;19927;-79
2021/12/10 07:44:20;;;;;;;;;;;2.40;99.90;;;;;;5044115;28;19920;-79
2021/12/10 07:46:48;;;;;;;;;;;2.40;99.90;;;;;;5057132;28;19924;-79
2021/12/10 07:49:16;;;;;;;;;;;2.40;99.90;;;;;;5057046;28;19920;-79
2021/12/10 07:51:44;;;;;;;;;;;2.40;99.90;;;;;;5074467;28;20458;-79
2021/12/10 07:54:10;;;;;;;;;;;2.50;99.90;;;;;;5040915;28;19926;-79
2021/12/10 07:56:36;;;;;;;;;;;2.50;99.90;;;;;;5059388;28;19926;-80
2021/12/10 07:59:02;;;;;;;;;;;2.50;99.90;;;;;;5042275;28;19943;-79
2021/12/10 08:01:29;;;;;;;;;;;2.50;99.90;;;;;;5058089;28;20011;-79
2021/12/10 08:03:56;;;;;;;;;;;2.60;99.90;;;;;;5050977;28;20020;-79
2021/12/10 08:06:22;;;;;;;;;;;2.50;99.90;;;;;;5074532;28;19924;-79
2021/12/10 08:08:48;;;;;;;;;;;2.50;99.90;;;;;;5045336;28;20007;-79
2021/12/10 08:11:14;;;;;;;;;;;2.50;99.90;;;;;;5054963;28;20018;-79
2021/12/10 08:13:40;;;;;;;;;;;2.50;99.90;;;;;;5074145;28;20435;-79
2021/12/10 08:16:05;;;;;;;;;;;2.50;99.90;;;;;;5056376;28;19939;-79
2021/12/10 08:18:32;;;;;;;;;;;2.50;99.90;;;;;;5071617;28;19959;-79
2021/12/10 08:20:59;;;;;;;;;;;2.50;99.90;;;;;;5074153;28;19924;-79
2021/12/10 08:23:25;;;;;;;;;;;2.50;99.90;;;;;;5054822;28;19973;-80
2021/12/10 08:25:51;;;;;;;;;;;2.60;99.90;;;;;;5058413;28;20382;-79
2021/12/10 08:28:21;;;;;;;;;;;2.60;99.90;;;;;;5038505;28;19927;-79
2021/12/10 08:30:48;;;;;;;;;;;2.60;99.90;;;;;;5063774;28;19920;-80
2021/12/10 08:33:15;;;;;;;;;;;2.70;99.90;;;;;;5040362;28;20389;-79
2021/12/10 08:35:43;;;;;;;;;;;2.70;99.90;;;;;;5068304;28;20279;-79
2021/12/10 08:38:09;;;;;;;;;;;2.80;99.90;;;;;;5036431;28;19928;-79
2021/12/10 08:40:37;;;;;;;;;;;2.80;99.90;;;;;;5050832;28;19981;-79
2021/12/10 08:43:03;;;;;;;;;;;2.80;99.90;;;;;;5049471;28;19920;-79
2021/12/10 08:45:28;;;;;;;;;;;2.90;99.90;;;;;;5050566;28;19932;-79
2021/12/10 08:47:54;;;;;;;;;;;2.90;99.90;;;;;;5054231;28;19924;-79
2021/12/10 08:50:23;;;;;;;;;;;2.90;99.90;;;;;;5051495;28;20434;-79
2021/12/10 08:52:50;;;;;;;;;;;2.90;99.90;;;;;;5035391;28;19928;-79
2021/12/10 08:55:17;;;;;;;;;;;3.00;99.90;;;;;;5051555;28;19931;-79
2021/12/10 08:57:43;;;;;;;;;;;3.00;99.90;;;;;;5047978;28;20005;-79
2021/12/10 09:00:10;;;;;;;;;;;3.10;99.90;;;;;;5050814;28;19920;-79
2021/12/10 09:02:37;;;;;;;;;;;3.10;99.90;;;;;;5035889;28;19920;-80
2021/12/10 09:05:05;;;;;;;;;;;3.20;99.90;;;;;;5052024;28;20023;-80
2021/12/10 09:07:30;;;;;;;;;;;3.20;99.90;;;;;;5047072;28;19920;-79
2021/12/10 09:09:57;;;;;;;;;;;3.20;99.90;;;;;;5069850;28;19920;-79
2021/12/10 09:12:25;;;;;;;;;;;3.30;99.90;;;;;;5050458;28;19938;-79
2021/12/10 09:14:53;;;;;;;;;;;3.30;99.90;;;;;;5036509;28;20155;-79
2021/12/10 09:17:21;;;;;;;;;;;3.40;99.90;;;;;;5070104;28;19999;-79
2021/12/10 09:19:47;;;;;;;;;;;3.40;99.90;;;;;;5049303;28;19920;-79
2021/12/10 09:22:13;;;;;;;;;;;3.50;99.90;;;;;;5052426;28;20297;-79
2021/12/10 09:24:39;;;;;;;;;;;3.50;99.90;;;;;;5066995;28;19920;-79
2021/12/10 09:27:07;;;;;;;;;;;3.60;99.90;;;;;;5065619;28;19928;-79
2021/12/10 09:29:35;;;;;;;;;;;3.70;99.90;;;;;;5050741;28;19928;-79
2021/12/10 09:32:02;;;;;;;;;;;3.70;99.90;;;;;;5044602;28;20419;-79
2021/12/10 09:34:28;;;;;;;;;;;3.80;99.90;;;;;;5047808;28;19924;-80
2021/12/10 09:36:55;;;;;;;;;;;3.90;99.90;;;;;;5031642;28;19929;-80
2021/12/10 09:39:21;;;;;;;;;;;4.00;99.90;;;;;;5027354;28;19927;-79
2021/12/10 09:41:47;;;;;;;;;;;4.70;99.90;;;;;;5065409;28;20026;-80
2021/12/10 09:44:15;;;;;;;;;;;5.80;99.90;;;;;;5048359;28;19928;-79
2021/12/10 09:46:42;;;;;;;;;;;6.80;99.90;;;;;;5063417;28;20006;-80
2021/12/10 09:49:09;;;;;;;;;;;7.70;99.90;;;;;;5026236;28;19924;-80
2021/12/10 09:51:37;;;;;;;;;;;8.60;99.90;;;;;;5063667;28;19928;-80
2021/12/10 09:54:10;;;;;;;;;;;9.40;99.90;;;;;;5049511;28;19924;-80
2021/12/10 09:56:36;;;;;;;;;;;10.10;99.90;;;;;;5025481;28;19930;-80
2021/12/10 09:59:02;;;;;;;;;;;10.70;99.90;;;;;;5063911;28;19935;-80
2021/12/10 10:01:31;;;;;;;;;;;11.20;99.90;;;;;;5067210;28;19921;-80
2021/12/10 10:04:01;;;;;;;;;;;11.30;95.50;;;;;;5036864;28;20499;-80
2021/12/10 10:06:27;;;;;;;;;;;11.30;95.20;;;;;;5046443;28;19993;-80
2021/12/10 10:08:52;;;;;;;;;;;11.20;94.50;;;;;;5045840;28;20389;-80
2021/12/10 10:11:20;;;;;;;;;;;11.70;96.20;;;;;;5042024;28;19924;-80
2021/12/10 10:13:46;;;;;;;;;;;12.20;94.40;;;;;;5052555;28;19920;-81
2021/12/10 10:16:12;;;;;;;;;;;12.30;90.30;;;;;;5031957;28;19925;-80
2021/12/10 10:18:42;;;;;;;;;;;12.00;92.20;;;;;;5034175;28;19924;-80
2021/12/10 10:21:11;;;;;;;;;;;12.40;93.00;;;;;;5046238;28;20321;-80
2021/12/10 10:23:38;;;;;;;;;;;12.90;91.30;;;;;;5049221;28;19970;-80
2021/12/10 10:26:05;;;;;;;;;;;13.20;86.10;;;;;;5030643;28;21987;-80
2021/12/10 10:28:30;;;;;;;;;;;13.20;86.50;;;;;;5048444;28;20015;-80
2021/12/10 10:31:01;;;;;;;;;;;13.60;90.60;;;;;;5049031;28;20439;-80
2021/12/10 10:33:29;;;;;;;;;;;14.00;87.50;;;;;;5047471;28;19985;-80
2021/12/10 10:35:58;;;;;;;;;;;14.30;82.10;;;;;;5062718;28;19927;-80
2021/12/10 10:38:25;;;;;;;;;;;14.30;79.00;;;;;;5065894;28;20012;-81
2021/12/10 10:40:54;;;;;;;;;;;14.10;77.90;;;;;;5034957;28;19928;-80
2021/12/10 10:43:21;;;;;;;;;;;14.00;79.80;;;;;;5050022;28;19930;-80
2021/12/10 10:45:46;;;;;;;;;;;14.20;83.40;;;;;;5069258;28;19930;-80
2021/12/10 10:48:13;;;;;;;;;;;14.40;83.60;;;;;;5036017;28;19923;-80
2021/12/10 10:50:40;;;;;;;;;;;14.20;75.40;;;;;;5069312;28;19928;-80
2021/12/10 10:53:09;;;;;;;;;;;13.80;77.40;;;;;;5050522;28;19923;-79
2021/12/10 10:55:37;;;;;;;;;;;13.80;78.20;;;;;;5035568;28;19924;-80
2021/12/10 10:58:04;;;;;;;;;;;14.20;81.50;;;;;;5049635;28;20269;-80
2021/12/10 11:00:39;;;;;;;;;;;14.50;77.90;;;;;;5059399;28;19950;-80
2021/12/10 11:03:09;;;;;;;;;;;14.70;81.10;;;;;;5050758;28;19920;-80
2021/12/10 11:05:42;;;;;;;;;;;15.10;80.50;;;;;;5034248;28;20338;-80
2021/12/10 11:08:09;;;;;;;;;;;15.40;78.10;;;;;;5053175;28;19920;-80
2021/12/10 11:10:36;;;;;;;;;;;15.40;77.30;;;;;;5072504;28;20227;-80
2021/12/10 11:13:09;;;;;;;;;;;15.50;70.90;;;;;;5036954;28;20344;-81
2021/12/10 11:15:35;;;;;;;;;;;15.40;75.60;;;;;;5071425;28;19928;-81
2021/12/10 11:18:01;;;;;;;;;;;15.30;70.30;;;;;;5049932;28;20283;-80
2021/12/10 11:20:28;;;;;;;;;;;15.10;69.40;;;;;;5038590;28;19928;-80
2021/12/10 11:22:56;;;;;;;;;;;15.00;70.10;;;;;;5068110;28;19932;-80
2021/12/10 11:25:25;;;;;;;;;;;14.80;72.20;;;;;;5054350;28;20413;-80
2021/12/10 11:28:00;;;;;;;;;;;14.90;71.70;;;;;;5055545;28;20481;-79
2021/12/10 11:30:26;;;;;;;;;;;14.80;69.60;;;;;;5055645;28;20320;-80
2021/12/10 11:32:53;;;;;;;;;;;14.50;70.30;;;;;;5067097;28;19928;-79
2021/12/10 11:35:20;;;;;;;;;;;14.40;69.30;;;;;;5072836;28;19924;-80
2021/12/10 11:37:48;;;;;;;;;;;14.10;70.10;;;;;;5052647;28;20262;-80
2021/12/10 11:40:31;;;;;;;;;;;14.20;72.50;;;;;;5090659;28;20026;-80
2021/12/10 11:43:01;;;;;;;;;;;14.30;71.80;;;;;;5056523;28;20335;-80
2021/12/10 11:45:40;;;;;;;;;;;14.50;70.80;;;;;;5073119;28;19976;-80
2021/12/10 11:48:09;;;;;;;;;;;14.50;72.00;;;;;;5060329;28;19920;-80
2021/12/10 11:50:37;;;;;;;;;;;14.50;70.30;;;;;;5057892;28;19946;-80
2021/12/10 11:53:05;;;;;;;;;;;14.20;69.50;;;;;;5070598;28;19920;-80
2021/12/10 11:55:33;;;;;;;;;;;13.90;68.90;;;;;;5053709;28;19935;-80
2021/12/10 11:57:59;;;;;;;;;;;13.90;70.90;;;;;;5046146;28;19930;-79
2021/12/10 12:00:26;;;;;;;;;;;14.20;70.20;;;;;;5049851;28;19924;-79
2021/12/10 12:02:53;;;;;;;;;;;14.20;71.10;;;;;;5057532;28;20382;-80
2021/12/10 12:05:20;;;;;;;;;;;14.20;70.50;;;;;;5058372;28;20294;-80
2021/12/10 12:07:46;;;;;;;;;;;14.10;71.60;;;;;;5040957;28;19920;-79
2021/12/10 12:10:19;;;;;;;;;;;14.20;69.00;;;;;;5057861;28;19927;-80
2021/12/10 12:12:47;;;;;;;;;;;13.90;67.80;;;;;;5056801;28;19927;-79
2021/12/10 12:15:19;;;;;;;;;;;13.30;69.10;;;;;;5073551;28;19924;-80
2021/12/10 12:17:45;;;;;;;;;;;13.10;71.80;;;;;;5057127;28;20381;-79
2021/12/10 12:20:32;;;;;;;;;;;13.00;70.40;;;;;;5074472;28;19932;-79
2021/12/10 12:25:44;;;;;;;;;;;13.10;71.90;;;;;;5055613;28;19977;-80
2021/12/10 12:28:14;;;;;;;;;;;13.10;72.70;;;;;;5054112;28;19927;-80
2021/12/10 12:30:51;;;;;;;;;;;12.90;73.70;;;;;;5067835;28;19930;-80
2021/12/10 12:33:17;;;;;;;;;;;12.30;71.10;;;;;;5050161;28;20353;-80
2021/12/10 12:35:42;;;;;;;;;;;12.00;74.00;;;;;;5067394;28;20022;-80
2021/12/10 12:38:09;;;;;;;;;;;11.90;73.70;;;;;;5053631;28;19924;-79
2021/12/10 12:40:36;;;;;;;;;;;11.80;74.40;;;;;;5076997;28;19924;-79
2021/12/10 12:43:05;;;;;;;;;;;11.80;75.60;;;;;;5034972;28;19928;-79
2021/12/10 12:45:34;;;;;;;;;;;11.80;76.70;;;;;;5056361;28;19928;-79
2021/12/10 12:48:02;;;;;;;;;;;11.70;75.40;;;;;;5037540;28;20061;-79
2021/12/10 12:50:29;;;;;;;;;;;11.60;76.00;;;;;;5038008;28;19973;-79
2021/12/10 12:52:56;;;;;;;;;;;11.40;75.80;;;;;;5056424;28;19920;-79
2021/12/10 12:55:29;;;;;;;;;;;11.30;76.90;;;;;;5051141;28;19970;-79
2021/12/10 12:57:56;;;;;;;;;;;11.10;77.00;;;;;;5055100;28;19965;-79
2021/12/10 13:00:24;;;;;;;;;;;10.90;78.00;;;;;;5063840;28;20447;-79
2021/12/10 13:02:52;;;;;;;;;;;10.80;78.00;;;;;;5068571;28;20010;-79
2021/12/10 13:05:18;;;;;;;;;;;10.70;79.70;;;;;;5069274;28;19929;-79
2021/12/10 13:07:43;;;;;;;;;;;10.60;80.50;;;;;;5054127;28;20263;-79
2021/12/10 13:10:17;;;;;;;;;;;10.40;80.40;;;;;;5067683;28;20033;-79
2021/12/10 13:12:56;;;;;;;;;;;10.10;81.40;;;;;;5074500;28;20021;-79
2021/12/10 13:15:23;;;;;;;;;;;10.00;83.40;;;;;;5053494;28;19920;-79
2021/12/10 13:17:54;;;;;;;;;;;10.00;84.30;;;;;;5033756;28;19928;-79
2021/12/10 13:20:21;;;;;;;;;;;10.00;84.60;;;;;;5028224;28;19932;-79
2021/12/10 13:22:48;;;;;;;;;;;9.90;85.80;;;;;;5053842;28;19923;-79
2021/12/10 13:25:17;;;;;;;;;;;9.90;85.80;;;;;;5070111;28;19920;-79
2021/12/10 13:27:43;;;;;;;;;;;9.90;86.70;;;;;;5068460;28;19924;-79
2021/12/10 13:30:10;;;;;;;;;;;9.90;86.50;;;;;;5070312;28;19920;-79
2021/12/10 13:32:35;;;;;;;;;;;9.70;87.40;;;;;;5099686;28;19924;-79
2021/12/10 13:35:03;;;;;;;;;;;9.50;87.90;;;;;;5030803;28;19977;-79
2021/12/10 13:37:29;;;;;;;;;;;9.20;88.90;;;;;;5052709;28;19925;-79
2021/12/10 13:39:58;;;;;;;;;;;9.10;90.10;;;;;;5069715;28;19932;-79
2021/12/10 13:42:23;;;;;;;;;;;8.90;90.60;;;;;;5068818;28;19928;-79
2021/12/10 13:44:54;;;;;;;;;;;8.90;91.00;;;;;;5053581;28;21276;-79
2021/12/10 13:47:25;;;;;;;;;;;8.70;91.10;;;;;;5053919;28;19928;-79
2021/12/10 13:49:53;;;;;;;;;;;8.50;91.50;;;;;;5053674;28;19924;-79
2021/12/10 13:52:52;;;;;;;;;;;8.40;91.80;;;;;;5050232;28;19924;-79
2021/12/10 13:55:21;;;;;;;;;;;8.30;92.00;;;;;;4970289;28;20296;-79
2021/12/10 13:58:06;;;;;;;;;;;8.20;92.30;;;;;;4984494;28;19973;-79
2021/12/10 14:00:31;;;;;;;;;;;8.00;92.60;;;;;;5013205;28;19977;-79
2021/12/10 14:02:57;;;;;;;;;;;7.80;92.90;;;;;;5066720;28;19928;-79
2021/12/10 14:05:24;;;;;;;;;;;7.60;93.20;;;;;;5068655;28;19928;-78
2021/12/10 14:07:51;;;;;;;;;;;7.40;93.80;;;;;;5060612;28;19924;-78
2021/12/10 14:10:24;;;;;;;;;;;7.10;94.30;;;;;;5046431;28;19973;-79
2021/12/10 14:12:49;;;;;;;;;;;7.00;94.40;;;;;;5045464;28;20022;-80
2021/12/10 14:15:18;;;;;;;;;;;6.90;94.80;;;;;;5055075;28;19963;-80
2021/12/10 14:17:45;;;;;;;;;;;6.70;94.80;;;;;;5066717;28;19928;-79
2021/12/10 14:20:14;;;;;;;;;;;6.60;95.10;;;;;;5035022;28;19939;-79
2021/12/10 14:22:48;;;;;;;;;;;6.50;95.30;;;;;;5049906;28;20046;-79
2021/12/10 14:25:16;;;;;;;;;;;6.30;95.90;;;;;;5034351;28;19928;-79
2021/12/10 14:27:49;;;;;;;;;;;6.20;95.90;;;;;;5073029;28;19997;-79
2021/12/10 14:30:16;;;;;;;;;;;6.10;96.10;;;;;;5049911;28;20399;-78
2021/12/10 14:32:42;;;;;;;;;;;5.90;96.20;;;;;;5050354;28;20418;-80
2021/12/10 14:35:11;;;;;;;;;;;5.80;96.30;;;;;;5050227;28;19931;-79
2021/12/10 14:37:52;;;;;;;;;;;5.70;96.70;;;;;;5068854;28;20014;-79
2021/12/10 14:40:20;;;;;;;;;;;5.50;97.30;;;;;;5049495;28;19975;-80
2021/12/10 14:43:04;;;;;;;;;;;5.40;97.60;;;;;;5051543;28;19928;-78
2021/12/10 14:45:31;;;;;;;;;;;5.30;97.90;;;;;;5068645;28;19928;-80
2021/12/10 14:48:06;;;;;;;;;;;5.20;97.80;;;;;;5049967;28;19940;-79
2021/12/10 14:50:34;;;;;;;;;;;5.00;98.00;;;;;;5069645;28;19924;-79
2021/12/10 14:53:00;;;;;;;;;;;4.90;98.30;;;;;;5033570;28;19927;-79
2021/12/10 14:55:29;;;;;;;;;;;4.80;98.20;;;;;;5035849;28;19924;-78
2021/12/10 14:57:56;;;;;;;;;;;4.80;98.30;;;;;;5067804;28;19920;-79
2021/12/10 15:00:42;;;;;;;;;;;4.70;98.50;;;;;;5051117;28;19939;-78
2021/12/10 15:03:11;;;;;;;;;;;4.50;98.60;;;;;;5062398;28;20311;-79
2021/12/10 15:05:38;;;;;;;;;;;4.40;98.80;;;;;;5069945;28;19930;-79
2021/12/10 15:08:05;;;;;;;;;;;4.30;98.90;;;;;;5029558;28;19928;-78
2021/12/10 15:10:32;;;;;;;;;;;4.20;99.10;;;;;;5050996;28;19921;-79
2021/12/10 15:13:01;;;;;;;;;;;4.10;99.30;;;;;;5052294;28;19925;-79
2021/12/10 15:15:42;;;;;;;;;;;4.00;99.50;;;;;;5047586;28;19946;-78
2021/12/10 15:18:22;;;;;;;;;;;3.90;99.70;;;;;;5048769;28;20395;-79
2021/12/10 15:21:06;;;;;;;;;;;3.80;99.80;;;;;;5024677;28;19973;-79
2021/12/10 15:23:32;;;;;;;;;;;3.70;99.90;;;;;;5051720;28;20401;-78
2021/12/10 15:25:58;;;;;;;;;;;3.60;99.90;;;;;;5032762;28;19960;-78
2021/12/10 15:28:24;;;;;;;;;;;3.50;99.90;;;;;;5059118;28;19931;-78
2021/12/10 15:30:51;;;;;;;;;;;3.40;99.90;;;;;;5053297;28;19924;-78
2021/12/10 15:33:20;;;;;;;;;;;3.30;99.90;;;;;;5054183;28;20320;-78
2021/12/10 15:35:47;;;;;;;;;;;3.20;99.90;;;;;;5053175;28;19924;-79
2021/12/10 15:38:16;;;;;;;;;;;3.20;99.90;;;;;;5042406;28;20305;-79
2021/12/10 15:40:45;;;;;;;;;;;3.10;99.90;;;;;;5072074;28;19935;-79
2021/12/10 15:43:13;;;;;;;;;;;3.00;99.90;;;;;;5071870;28;19986;-79
2021/12/10 15:45:40;;;;;;;;;;;2.90;99.90;;;;;;5073837;28;19954;-79
2021/12/10 15:48:06;;;;;;;;;;;2.80;99.90;;;;;;5057385;28;19924;-79
2021/12/10 15:50:33;;;;;;;;;;;2.80;99.90;;;;;;5074314;28;20340;-79
2021/12/10 15:53:01;;;;;;;;;;;2.70;99.90;;;;;;5076011;28;19973;-79
2021/12/10 15:55:29;;;;;;;;;;;2.70;99.90;;;;;;5056664;28;19931;-79
2021/12/10 15:57:59;;;;;;;;;;;2.60;99.90;;;;;;5056790;28;20066;-80
2021/12/10 16:00:26;;;;;;;;;;;2.60;99.90;;;;;;5073190;28;20180;-79
2021/12/10 16:02:52;;;;;;;;;;;2.50;99.90;;;;;;5082066;28;19927;-79
2021/12/10 16:05:19;;;;;;;;;;;2.40;99.90;;;;;;5051585;28;19925;-79
2021/12/10 16:07:46;;;;;;;;;;;2.40;99.90;;;;;;5074574;28;19924;-79
2021/12/10 16:10:12;;;;;;;;;;;2.30;99.90;;;;;;5074248;28;20446;-79
2021/12/10 16:12:41;;;;;;;;;;;2.30;99.90;;;;;;5060500;28;19928;-79
2021/12/10 16:15:09;;;;;;;;;;;2.20;99.90;;;;;;5046615;28;19924;-79
2021/12/10 16:17:34;;;;;;;;;;;2.20;99.90;;;;;;5052214;28;19935;-78
2021/12/10 16:20:00;;;;;;;;;;;2.10;99.90;;;;;;5039696;28;19921;-79
2021/12/10 16:22:27;;;;;;;;;;;2.10;99.90;;;;;;5063773;28;19921;-79
2021/12/10 16:24:54;;;;;;;;;;;2.10;99.90;;;;;;5049148;28;19924;-78
2021/12/10 16:27:22;;;;;;;;;;;2.00;99.90;;;;;;5073943;28;20442;-78
2021/12/10 16:29:53;;;;;;;;;;;1.90;99.90;;;;;;5053085;28;19928;-79
2021/12/10 16:32:21;;;;;;;;;;;1.90;99.90;;;;;;5071763;28;19930;-78
2021/12/10 16:34:49;;;;;;;;;;;1.90;99.90;;;;;;5040822;28;20007;-79
2021/12/10 16:37:14;;;;;;;;;;;1.80;99.90;;;;;;5055712;28;20019;-78
2021/12/10 16:39:41;;;;;;;;;;;1.80;99.90;;;;;;5053678;28;20023;-78
2021/12/10 16:42:07;;;;;;;;;;;1.70;99.90;;;;;;5035549;28;20399;-79
2021/12/10 16:44:33;;;;;;;;;;;1.70;99.90;;;;;;5036692;28;19924;-79
2021/12/10 16:47:03;;;;;;;;;;;1.70;99.90;;;;;;5045243;28;20451;-78
2021/12/10 16:49:30;;;;;;;;;;;1.70;99.90;;;;;;5045132;28;20038;-78
2021/12/10 16:51:57;;;;;;;;;;;1.60;99.90;;;;;;5073015;28;19927;-78
2021/12/10 16:54:25;;;;;;;;;;;1.60;99.90;;;;;;5044232;28;19954;-78
2021/12/10 16:56:53;;;;;;;;;;;1.60;99.90;;;;;;5044046;28;19959;-79
2021/12/10 16:59:19;;;;;;;;;;;1.60;99.90;;;;;;5047581;28;19973;-79
2021/12/10 17:01:48;;;;;;;;;;;1.60;99.90;;;;;;5070659;28;19946;-79
2021/12/10 17:04:17;;;;;;;;;;;1.50;99.90;;;;;;5056467;28;19942;-79